createdAt,value
2022-08-26T00:00:19.821Z,93694.47
2022-08-26T00:01:28.941Z,93691.22
2022-08-26T00:02:31.283Z,93688.53
2022-08-26T00:03:32.840Z,93693.41
2022-08-26T00:04:34.498Z,93695.03
2022-08-26T00:05:36.470Z,93696.22
2022-08-26T00:06:39.079Z,93691.66
2022-08-26T00:07:44.255Z,93697.13
2022-08-26T00:08:45.795Z,93694.22
2022-08-26T00:09:48.342Z,93686.72
2022-08-26T00:10:51.635Z,93695.44
2022-08-26T00:11:53.917Z,93690.97
2022-08-26T00:12:55.402Z,93694.97
2022-08-26T00:13:58.276Z,93692.06
2022-08-26T00:14:59.778Z,93690.84
2022-08-26T00:16:05.145Z,93698.34
2022-08-26T00:17:06.659Z,93696.16
2022-08-26T00:18:16.860Z,93692.41
2022-08-26T00:19:24.099Z,93701.19
2022-08-26T00:20:28.653Z,93698.91
2022-08-26T00:21:30.252Z,93695.91
2022-08-26T00:22:31.874Z,93701.25
2022-08-26T00:23:33.549Z,93706.28
2022-08-26T00:24:35.114Z,93704.47
2022-08-26T00:25:37.559Z,93699.22
2022-08-26T00:26:44.010Z,93700.75
2022-08-26T00:27:50.015Z,93700.19
2022-08-26T00:28:53.709Z,93696.16
2022-08-26T00:29:55.233Z,93695.50
2022-08-26T00:30:58.367Z,93696.06
2022-08-26T00:32:01.212Z,93686.97
2022-08-26T00:33:03.487Z,93693.06
2022-08-26T00:34:07.167Z,93686.97
2022-08-26T00:35:11.454Z,93690.34
2022-08-26T00:36:12.944Z,93686.44
2022-08-26T00:37:22.001Z,93692.22
2022-08-26T00:38:24.101Z,93690.25
2022-08-26T00:39:25.615Z,93687.94
2022-08-26T00:40:29.627Z,93692.56
2022-08-26T00:41:31.135Z,93695.50
2022-08-26T00:42:32.646Z,93684.91
2022-08-26T00:43:47.459Z,93683.41
2022-08-26T00:44:51.460Z,93687.84
2022-08-26T00:45:59.334Z,93688.31
2022-08-26T00:47:05.825Z,93690.50
2022-08-26T00:48:09.091Z,93678.06
2022-08-26T00:49:15.673Z,93686.06
2022-08-26T00:50:21.690Z,93682.03
2022-08-26T00:51:29.870Z,93687.09
2022-08-26T00:52:31.711Z,93686.06
2022-08-26T00:53:41.401Z,93684.66
2022-08-26T00:54:47.052Z,93683.34
2022-08-26T00:55:54.913Z,93680.78
2022-08-26T00:57:02.252Z,93682.16
2022-08-26T00:58:03.943Z,93684.31
2022-08-26T00:59:08.075Z,93684.25
2022-08-26T01:00:15.007Z,93683.50
2022-08-26T01:01:17.432Z,93681.94
2022-08-26T01:02:21.536Z,93678.31
2022-08-26T01:03:25.806Z,93681.88
2022-08-26T01:04:29.053Z,93679.28
2022-08-26T01:05:30.848Z,93677.97
2022-08-26T01:06:32.483Z,93676.66
2022-08-26T01:07:35.091Z,93679.91
2022-08-26T01:08:36.636Z,93677.31
2022-08-26T01:09:38.241Z,93680.78
2022-08-26T01:10:42.024Z,93681.00
2022-08-26T01:11:47.052Z,93683.47
2022-08-26T01:12:53.674Z,93680.28
2022-08-26T01:13:59.003Z,93683.19
2022-08-26T01:15:00.680Z,93684.25
2022-08-26T01:16:05.082Z,93681.91
2022-08-26T01:17:08.119Z,93684.69
2022-08-26T01:18:12.938Z,93685.72
2022-08-26T01:19:20.345Z,93680.44
2022-08-26T01:20:28.879Z,93676.97
2022-08-26T01:21:35.959Z,93678.56
2022-08-26T01:22:52.672Z,93678.88
2022-08-26T01:23:57.655Z,93682.94
2022-08-26T01:25:00.689Z,93679.19
2022-08-26T01:26:09.256Z,93677.59
2022-08-26T01:27:21.232Z,93679.28
2022-08-26T01:28:27.702Z,93677.41
2022-08-26T01:29:31.233Z,93680.88
2022-08-26T01:30:34.131Z,93675.31
2022-08-26T01:31:40.185Z,93682.53
2022-08-26T01:32:42.812Z,93680.69
2022-08-26T01:33:53.739Z,93679.97
2022-08-26T01:34:55.267Z,93680.47
2022-08-26T01:35:56.815Z,93686.00
2022-08-26T01:37:04.802Z,93676.47
2022-08-26T01:38:08.565Z,93679.53
2022-08-26T01:39:10.929Z,93685.50
2022-08-26T01:40:18.215Z,93678.78
2022-08-26T01:41:27.462Z,93678.41
2022-08-26T01:42:30.560Z,93680.78
2022-08-26T01:43:33.838Z,93682.06
2022-08-26T01:44:41.287Z,93682.88
2022-08-26T01:45:44.476Z,93675.34
2022-08-26T01:46:48.961Z,93675.66
2022-08-26T01:47:56.630Z,93682.56
2022-08-26T01:49:01.716Z,93676.41
2022-08-26T01:50:08.998Z,93676.91
2022-08-26T01:51:13.367Z,93685.13
2022-08-26T01:52:21.752Z,93680.59
2022-08-26T01:53:25.416Z,93681.56
2022-08-26T01:54:27.119Z,93692.75
2022-08-26T01:55:33.081Z,93683.69
2022-08-26T01:56:36.533Z,93694.06
2022-08-26T01:57:38.303Z,93684.09
2022-08-26T01:58:42.843Z,93684.03
2022-08-26T01:59:44.767Z,93684.19
2022-08-26T02:00:46.909Z,93685.47
2022-08-26T02:01:48.793Z,93686.66
2022-08-26T02:02:54.468Z,93684.56
2022-08-26T02:04:02.824Z,93683.75
2022-08-26T02:05:07.048Z,93680.16
2022-08-26T02:06:09.429Z,93688.75
2022-08-26T02:07:12.242Z,93687.09
2022-08-26T02:08:17.201Z,93687.84
2022-08-26T02:09:27.507Z,93689.59
2022-08-26T02:10:29.005Z,93692.53
2022-08-26T02:11:31.018Z,93692.22
2022-08-26T02:12:33.867Z,93687.34
2022-08-26T02:13:39.971Z,93687.50
2022-08-26T02:14:46.130Z,93687.72
2022-08-26T02:15:48.429Z,93691.19
2022-08-26T02:16:52.950Z,93686.09
2022-08-26T02:17:55.398Z,93688.44
2022-08-26T02:19:00.156Z,93686.81
2022-08-26T02:20:02.950Z,93693.88
2022-08-26T02:21:06.752Z,93686.91
2022-08-26T02:22:12.845Z,93690.16
2022-08-26T02:23:14.393Z,93696.31
2022-08-26T02:24:18.773Z,93698.19
2022-08-26T02:25:27.983Z,93691.13
2022-08-26T02:26:29.460Z,93697.47
2022-08-26T02:27:33.455Z,93692.06
2022-08-26T02:28:40.626Z,93687.75
2022-08-26T02:29:45.379Z,93692.63
2022-08-26T02:30:47.224Z,93686.47
2022-08-26T02:31:50.393Z,93686.75
2022-08-26T02:32:52.313Z,93687.28
2022-08-26T02:33:53.802Z,93690.06
2022-08-26T02:34:55.289Z,93691.13
2022-08-26T02:35:56.922Z,93688.34
2022-08-26T02:36:59.814Z,93688.59
2022-08-26T02:38:01.794Z,93686.63
2022-08-26T02:39:11.658Z,93688.16
2022-08-26T02:40:16.403Z,93688.38
2022-08-26T02:41:19.327Z,93685.88
2022-08-26T02:42:20.817Z,93684.97
2022-08-26T02:43:31.194Z,93681.72
2022-08-26T02:44:33.486Z,93673.81
2022-08-26T02:45:35.406Z,93682.53
2022-08-26T02:46:37.257Z,93673.72
2022-08-26T02:47:38.950Z,93676.06
2022-08-26T02:48:40.646Z,93677.09
2022-08-26T02:49:44.261Z,93676.28
2022-08-26T02:50:45.956Z,93683.47
2022-08-26T02:51:47.719Z,93684.16
2022-08-26T02:52:49.312Z,93678.59
2022-08-26T02:53:51.776Z,93680.19
2022-08-26T02:54:53.298Z,93678.47
2022-08-26T02:55:54.996Z,93675.94
2022-08-26T02:56:57.826Z,93679.19
2022-08-26T02:58:00.220Z,93675.88
2022-08-26T02:59:02.038Z,93672.38
2022-08-26T03:00:06.342Z,93674.94
2022-08-26T03:01:08.095Z,93670.91
2022-08-26T03:02:09.762Z,93673.09
2022-08-26T03:03:11.241Z,93676.44
2022-08-26T03:04:14.195Z,93676.69
2022-08-26T03:05:17.502Z,93674.63
2022-08-26T03:06:19.062Z,93672.28
2022-08-26T03:07:20.514Z,93679.47
2022-08-26T03:08:22.906Z,93676.00
2022-08-26T03:09:24.929Z,93675.66
2022-08-26T03:10:26.532Z,93678.34
2022-08-26T03:11:32.760Z,93673.47
2022-08-26T03:12:36.363Z,93681.94
2022-08-26T03:13:38.084Z,93682.25
2022-08-26T03:14:40.178Z,93684.13
2022-08-26T03:15:41.850Z,93679.50
2022-08-26T03:16:44.429Z,93678.44
2022-08-26T03:17:50.368Z,93674.03
2022-08-26T03:18:52.599Z,93675.56
2022-08-26T03:19:57.283Z,93672.16
2022-08-26T03:20:59.049Z,93676.34
2022-08-26T03:22:00.526Z,93676.53
2022-08-26T03:23:02.039Z,93673.00
2022-08-26T03:24:06.220Z,93673.28
2022-08-26T03:25:11.385Z,93670.72
2022-08-26T03:26:15.359Z,93669.63
2022-08-26T03:27:17.998Z,93667.13
2022-08-26T03:28:21.129Z,93674.53
2022-08-26T03:29:23.515Z,93677.00
2022-08-26T03:30:25.076Z,93670.16
2022-08-26T03:31:28.518Z,93668.22
2022-08-26T03:32:30.015Z,93665.78
2022-08-26T03:33:31.730Z,93661.50
2022-08-26T03:34:33.689Z,93662.31
2022-08-26T03:35:35.377Z,93664.63
2022-08-26T03:36:36.837Z,93668.94
2022-08-26T03:37:39.017Z,93663.94
2022-08-26T03:38:40.575Z,93665.91
2022-08-26T03:39:42.196Z,93667.28
2022-08-26T03:40:44.023Z,93667.88
2022-08-26T03:41:45.610Z,93669.38
2022-08-26T03:42:47.660Z,93668.56
2022-08-26T03:43:51.258Z,93662.09
2022-08-26T03:44:52.796Z,93666.63
2022-08-26T03:45:55.081Z,93663.63
2022-08-26T03:46:56.562Z,93665.91
2022-08-26T03:47:58.428Z,93664.19
2022-08-26T03:49:01.792Z,93663.81
2022-08-26T03:50:03.889Z,93666.16
2022-08-26T03:51:11.992Z,93663.63
2022-08-26T03:52:15.443Z,93663.88
2022-08-26T03:53:16.902Z,93660.63
2022-08-26T03:54:22.058Z,93659.09
2022-08-26T03:55:25.374Z,93663.97
2022-08-26T03:56:28.879Z,93667.69
2022-08-26T03:57:30.428Z,93668.25
2022-08-26T03:58:32.336Z,93664.06
2022-08-26T03:59:35.149Z,93659.34
2022-08-26T04:00:38.557Z,93660.69
2022-08-26T04:01:40.295Z,93655.59
2022-08-26T04:02:45.022Z,93664.78
2022-08-26T04:03:46.942Z,93664.31
2022-08-26T04:04:48.453Z,93658.97
2022-08-26T04:05:51.714Z,93661.16
2022-08-26T04:06:57.296Z,93664.34
2022-08-26T04:07:58.845Z,93669.19
2022-08-26T04:09:03.412Z,93668.13
2022-08-26T04:10:07.177Z,93666.53
2022-08-26T04:11:08.675Z,93666.53
2022-08-26T04:12:11.675Z,93672.13
2022-08-26T04:13:13.167Z,93660.22
2022-08-26T04:14:17.497Z,93665.63
2022-08-26T04:15:21.023Z,93662.31
2022-08-26T04:16:23.014Z,93668.34
2022-08-26T04:17:27.523Z,93664.75
2022-08-26T04:18:33.002Z,93663.75
2022-08-26T04:19:38.711Z,93663.69
2022-08-26T04:20:40.196Z,93662.53
2022-08-26T04:21:42.269Z,93660.81
2022-08-26T04:22:44.181Z,93665.94
2022-08-26T04:23:47.567Z,93669.66
2022-08-26T04:24:49.606Z,93665.94
2022-08-26T04:25:51.502Z,93668.38
2022-08-26T04:26:53.107Z,93669.31
2022-08-26T04:27:54.559Z,93661.31
2022-08-26T04:28:56.022Z,93663.50
2022-08-26T04:29:57.746Z,93665.09
2022-08-26T04:31:00.679Z,93664.47
2022-08-26T04:32:02.562Z,93662.00
2022-08-26T04:33:04.155Z,93657.16
2022-08-26T04:34:15.072Z,93663.25
2022-08-26T04:35:16.675Z,93661.59
2022-08-26T04:36:20.201Z,93658.44
2022-08-26T04:37:21.926Z,93659.56
2022-08-26T04:38:24.109Z,93656.41
2022-08-26T04:39:27.719Z,93649.78
2022-08-26T04:40:29.477Z,93653.25
2022-08-26T04:41:31.652Z,93662.41
2022-08-26T04:42:33.220Z,93654.22
2022-08-26T04:43:35.789Z,93649.78
2022-08-26T04:44:37.292Z,93651.69
2022-08-26T04:45:40.404Z,93650.00
2022-08-26T04:46:43.957Z,93658.59
2022-08-26T04:47:45.654Z,93651.69
2022-08-26T04:48:47.307Z,93663.94
2022-08-26T04:49:48.783Z,93660.53
2022-08-26T04:50:50.340Z,93657.63
2022-08-26T04:51:51.835Z,93661.66
2022-08-26T04:52:53.700Z,93657.38
2022-08-26T04:53:56.126Z,93657.38
2022-08-26T04:54:57.783Z,93657.13
2022-08-26T04:55:59.294Z,93661.41
2022-08-26T04:57:00.848Z,93661.41
2022-08-26T04:58:02.294Z,93658.50
2022-08-26T04:59:06.499Z,93660.69
2022-08-26T05:00:10.402Z,93666.66
2022-08-26T05:01:12.638Z,93669.91
2022-08-26T05:02:15.498Z,93670.72
2022-08-26T05:03:17.921Z,93665.91
2022-08-26T05:04:20.840Z,93673.44
2022-08-26T05:05:22.413Z,93675.63
2022-08-26T05:06:24.132Z,93674.59
2022-08-26T05:07:26.163Z,93671.97
2022-08-26T05:08:27.643Z,93665.81
2022-08-26T05:09:29.119Z,93666.41
2022-08-26T05:10:31.981Z,93668.31
2022-08-26T05:11:33.517Z,93666.72
2022-08-26T05:12:35.487Z,93662.47
2022-08-26T05:13:37.090Z,93664.66
2022-08-26T05:14:38.594Z,93659.44
2022-08-26T05:15:40.117Z,93668.69
2022-08-26T05:16:42.795Z,93667.00
2022-08-26T05:17:45.611Z,93659.38
2022-08-26T05:18:47.151Z,93662.34
2022-08-26T05:19:48.922Z,93667.69
2022-08-26T05:20:54.695Z,93662.16
2022-08-26T05:21:56.471Z,93669.81
2022-08-26T05:22:58.889Z,93670.75
2022-08-26T05:24:01.640Z,93673.53
2022-08-26T05:25:03.849Z,93667.91
2022-08-26T05:26:08.192Z,93668.03
2022-08-26T05:27:11.603Z,93667.84
2022-08-26T05:28:15.553Z,93665.19
2022-08-26T05:29:17.231Z,93661.22
2022-08-26T05:30:19.936Z,93666.53
2022-08-26T05:31:24.069Z,93665.06
2022-08-26T05:32:25.662Z,93668.81
2022-08-26T05:33:30.063Z,93665.97
2022-08-26T05:34:31.528Z,93672.19
2022-08-26T05:35:33.527Z,93669.06
2022-08-26T05:36:36.086Z,93675.53
2022-08-26T05:37:38.585Z,93670.56
2022-08-26T05:38:40.070Z,93671.56
2022-08-26T05:39:43.584Z,93673.44
2022-08-26T05:40:53.189Z,93678.22
2022-08-26T05:41:54.752Z,93674.66
2022-08-26T05:42:56.249Z,93673.28
2022-08-26T05:44:00.268Z,93674.06
2022-08-26T05:45:01.816Z,93676.41
2022-08-26T05:46:06.765Z,93674.94
2022-08-26T05:47:08.314Z,93678.41
2022-08-26T05:48:10.542Z,93671.28
2022-08-26T05:49:14.716Z,93674.38
2022-08-26T05:50:17.686Z,93677.19
2022-08-26T05:51:23.975Z,93675.38
2022-08-26T05:52:27.316Z,93679.44
2022-08-26T05:53:29.690Z,93673.88
2022-08-26T05:54:31.156Z,93673.41
2022-08-26T05:55:32.697Z,93673.91
2022-08-26T05:56:34.458Z,93666.34
2022-08-26T05:57:40.399Z,93673.41
2022-08-26T05:58:44.389Z,93676.56
2022-08-26T05:59:47.784Z,93670.09
2022-08-26T06:00:57.847Z,93672.81
2022-08-26T06:01:59.474Z,93665.81
2022-08-26T06:03:01.045Z,93665.28
2022-08-26T06:04:03.434Z,93671.19
2022-08-26T06:05:06.689Z,93669.09
2022-08-26T06:06:12.316Z,93670.66
2022-08-26T06:07:13.822Z,93672.75
2022-08-26T06:08:15.340Z,93674.03
2022-08-26T06:09:20.726Z,93671.63
2022-08-26T06:10:32.234Z,93678.31
2022-08-26T06:11:34.593Z,93673.00
2022-08-26T06:12:36.067Z,93677.31
2022-08-26T06:13:39.021Z,93682.69
2022-08-26T06:14:40.481Z,93685.84
2022-08-26T06:15:43.400Z,93676.38
2022-08-26T06:16:45.737Z,93677.75
2022-08-26T06:17:47.185Z,93678.81
2022-08-26T06:18:52.128Z,93681.28
2022-08-26T06:19:53.590Z,93685.41
2022-08-26T06:20:57.866Z,93681.38
2022-08-26T06:21:59.771Z,93681.94
2022-08-26T06:23:02.224Z,93680.06
2022-08-26T06:24:07.568Z,93693.41
2022-08-26T06:25:09.888Z,93685.72
2022-08-26T06:26:12.752Z,93687.25
2022-08-26T06:27:15.342Z,93689.41
2022-08-26T06:28:17.076Z,93689.56
2022-08-26T06:29:24.133Z,93690.34
2022-08-26T06:30:26.482Z,93680.56
2022-08-26T06:31:29.078Z,93690.69
2022-08-26T06:32:30.805Z,93697.25
2022-08-26T06:33:32.334Z,93694.56
2022-08-26T06:34:33.860Z,93686.38
2022-08-26T06:35:40.002Z,93697.72
2022-08-26T06:36:44.717Z,93694.28
2022-08-26T06:37:47.514Z,93695.69
2022-08-26T06:38:50.290Z,93696.75
2022-08-26T06:39:51.801Z,93695.66
2022-08-26T06:40:54.186Z,93706.97
2022-08-26T06:41:55.675Z,93702.38
2022-08-26T06:42:57.126Z,93697.25
2022-08-26T06:43:58.733Z,93694.03
2022-08-26T06:45:00.211Z,93701.53
2022-08-26T06:46:04.808Z,93693.44
2022-08-26T06:47:06.886Z,93693.72
2022-08-26T06:48:08.377Z,93690.19
2022-08-26T06:49:12.312Z,93685.31
2022-08-26T06:50:13.780Z,93695.78
2022-08-26T06:51:18.024Z,93700.03
2022-08-26T06:52:24.300Z,93695.59
2022-08-26T06:53:26.135Z,93696.91
2022-08-26T06:54:27.980Z,93699.06
2022-08-26T06:55:29.924Z,93697.47
2022-08-26T06:56:34.518Z,93693.22
2022-08-26T06:57:37.687Z,93698.59
2022-08-26T06:58:42.501Z,93699.16
2022-08-26T06:59:43.993Z,93697.00
2022-08-26T07:00:47.319Z,93700.50
2022-08-26T07:01:49.801Z,93696.72
2022-08-26T07:02:51.496Z,93702.69
2022-08-26T07:03:55.351Z,93701.06
2022-08-26T07:04:58.721Z,93700.50
2022-08-26T07:06:03.952Z,93695.09
2022-08-26T07:07:06.777Z,93696.97
2022-08-26T07:08:12.496Z,93703.66
2022-08-26T07:09:14.048Z,93698.03
2022-08-26T07:10:15.821Z,93698.84
2022-08-26T07:11:18.433Z,93702.66
2022-08-26T07:12:20.009Z,93709.09
2022-08-26T07:13:29.867Z,93701.88
2022-08-26T07:14:33.877Z,93700.47
2022-08-26T07:15:40.826Z,93701.56
2022-08-26T07:16:42.386Z,93699.94
2022-08-26T07:17:44.114Z,93701.03
2022-08-26T07:18:46.162Z,93700.75
2022-08-26T07:19:48.003Z,93703.72
2022-08-26T07:20:50.781Z,93702.91
2022-08-26T07:21:52.360Z,93705.34
2022-08-26T07:22:57.110Z,93707.22
2022-08-26T07:24:00.660Z,93709.66
2022-08-26T07:25:03.865Z,93707.25
2022-08-26T07:26:08.410Z,93705.34
2022-08-26T07:27:12.202Z,93703.44
2022-08-26T07:28:13.683Z,93708.84
2022-08-26T07:29:15.173Z,93712.34
2022-08-26T07:30:18.827Z,93706.13
2022-08-26T07:31:22.777Z,93709.88
2022-08-26T07:32:24.416Z,93711.47
2022-08-26T07:33:25.905Z,93712.81
2022-08-26T07:34:28.128Z,93709.31
2022-08-26T07:35:29.646Z,93711.47
2022-08-26T07:36:31.153Z,93707.41
2022-08-26T07:37:35.471Z,93714.16
2022-08-26T07:38:41.796Z,93712.56
2022-08-26T07:39:45.508Z,93715.69
2022-08-26T07:40:47.013Z,93716.00
2022-08-26T07:41:48.469Z,93715.06
2022-08-26T07:42:50.619Z,93711.03
2022-08-26T07:43:52.490Z,93714.88
2022-08-26T07:44:54.531Z,93712.91
2022-08-26T07:45:56.645Z,93718.31
2022-08-26T07:46:58.253Z,93720.31
2022-08-26T07:47:59.884Z,93717.94
2022-08-26T07:49:05.898Z,93708.00
2022-08-26T07:50:09.128Z,93718.16
2022-08-26T07:51:11.285Z,93713.72
2022-08-26T07:52:12.782Z,93715.09
2022-08-26T07:53:15.110Z,93715.84
2022-08-26T07:54:20.075Z,93713.41
2022-08-26T07:55:27.574Z,93718.09
2022-08-26T07:56:29.301Z,93711.34
2022-08-26T07:57:30.763Z,93723.56
2022-08-26T07:58:32.299Z,93721.41
2022-08-26T07:59:33.816Z,93720.78
2022-08-26T08:00:35.354Z,93717.78
2022-08-26T08:01:37.105Z,93718.59
2022-08-26T08:02:40.549Z,93718.63
2022-08-26T08:03:42.076Z,93714.28
2022-08-26T08:04:43.618Z,93716.56
2022-08-26T08:05:46.342Z,93712.97
2022-08-26T08:06:48.427Z,93718.09
2022-08-26T08:07:49.930Z,93719.75
2022-08-26T08:08:55.880Z,93719.31
2022-08-26T08:09:57.379Z,93716.75
2022-08-26T08:11:00.177Z,93714.91
2022-08-26T08:12:01.760Z,93715.41
2022-08-26T08:13:05.316Z,93716.72
2022-08-26T08:14:08.532Z,93723.03
2022-08-26T08:15:11.820Z,93714.94
2022-08-26T08:16:14.158Z,93725.06
2022-08-26T08:17:16.384Z,93721.19
2022-08-26T08:18:18.002Z,93723.28
2022-08-26T08:19:22.432Z,93717.38
2022-08-26T08:20:24.850Z,93723.69
2022-08-26T08:21:27.422Z,93711.41
2022-08-26T08:22:30.442Z,93723.53
2022-08-26T08:23:32.505Z,93731.72
2022-08-26T08:24:34.938Z,93715.31
2022-08-26T08:25:36.419Z,93717.69
2022-08-26T08:26:39.287Z,93722.81
2022-08-26T08:27:42.509Z,93710.06
2022-08-26T08:28:44.407Z,93708.56
2022-08-26T08:29:49.423Z,93710.44
2022-08-26T08:30:50.962Z,93718.00
2022-08-26T08:31:56.676Z,93716.81
2022-08-26T08:32:59.764Z,93716.84
2022-08-26T08:34:02.014Z,93725.16
2022-08-26T08:35:11.536Z,93721.13
2022-08-26T08:36:13.465Z,93714.13
2022-08-26T08:37:20.080Z,93717.16
2022-08-26T08:38:22.471Z,93717.28
2022-08-26T08:39:25.980Z,93713.06
2022-08-26T08:40:27.879Z,93712.69
2022-08-26T08:41:53.521Z,93712.94
2022-08-26T08:43:01.163Z,93717.16
2022-08-26T08:44:08.566Z,93711.06
2022-08-26T08:45:15.018Z,93716.06
2022-08-26T08:46:18.348Z,93707.19
2022-08-26T08:47:28.943Z,93712.91
2022-08-26T08:48:33.272Z,93714.19
2022-08-26T08:49:34.876Z,93716.50
2022-08-26T08:50:42.884Z,93709.88
2022-08-26T08:51:51.833Z,93714.97
2022-08-26T08:53:02.830Z,93709.22
2022-08-26T08:54:08.632Z,93711.44
2022-08-26T08:55:17.408Z,93709.78
2022-08-26T08:56:26.596Z,93711.47
2022-08-26T08:57:42.765Z,93713.53
2022-08-26T08:58:57.048Z,93713.81
2022-08-26T09:00:04.476Z,93714.53
2022-08-26T09:01:12.063Z,93709.13
2022-08-26T09:02:23.655Z,93713.88
2022-08-26T09:03:36.515Z,93710.38
2022-08-26T09:05:02.519Z,93708.44
2022-08-26T09:06:06.951Z,93712.84
2022-08-26T09:07:12.068Z,93706.53
2022-08-26T09:08:19.846Z,93704.88
2022-08-26T09:09:26.588Z,93696.84
2022-08-26T09:10:35.178Z,93704.22
2022-08-26T09:11:37.639Z,93696.69
2022-08-26T09:12:40.440Z,93696.50
2022-08-26T09:13:47.469Z,93700.81
2022-08-26T09:14:51.125Z,93693.94
2022-08-26T09:16:03.186Z,93697.56
2022-08-26T09:17:12.370Z,93697.97
2022-08-26T09:18:25.523Z,93694.06
2022-08-26T09:19:32.359Z,93698.06
2022-08-26T09:20:43.612Z,93695.59
2022-08-26T09:21:55.108Z,93690.91
2022-08-26T09:22:58.184Z,93686.78
2022-08-26T09:24:00.222Z,93690.00
2022-08-26T09:25:02.397Z,93683.34
2022-08-26T09:26:17.802Z,93696.88
2022-08-26T09:27:43.611Z,93692.94
2022-08-26T09:28:48.395Z,93690.34
2022-08-26T09:29:50.379Z,93694.56
2022-08-26T09:31:00.570Z,93700.31
2022-08-26T09:32:18.533Z,93695.88
2022-08-26T09:33:27.397Z,93692.97
2022-08-26T09:34:29.305Z,93693.25
2022-08-26T09:35:36.476Z,93687.28
2022-08-26T09:36:41.643Z,93694.81
2022-08-26T09:38:53.268Z,93691.41
2022-08-26T09:40:10.946Z,93688.47
2022-08-26T09:41:27.904Z,93688.56
2022-08-26T09:42:29.547Z,93688.88
2022-08-26T09:43:32.634Z,93693.22
2022-08-26T09:44:35.458Z,93692.13
2022-08-26T09:45:38.079Z,93682.16
2022-08-26T09:46:45.611Z,93684.28
2022-08-26T09:47:54.262Z,93684.66
2022-08-26T09:48:56.307Z,93688.31
2022-08-26T09:50:02.007Z,93692.59
2022-08-26T09:51:06.058Z,93687.91
2022-08-26T09:52:19.570Z,93685.19
2022-08-26T09:53:25.203Z,93682.63
2022-08-26T09:54:32.490Z,93679.47
2022-08-26T09:55:36.158Z,93672.16
2022-08-26T09:56:39.300Z,93681.56
2022-08-26T09:57:48.957Z,93673.44
2022-08-26T09:58:52.290Z,93674.09
2022-08-26T09:59:54.397Z,93671.59
2022-08-26T10:00:57.865Z,93678.59
2022-08-26T10:02:17.229Z,93661.72
2022-08-26T10:03:25.141Z,93672.66
2022-08-26T10:04:27.002Z,93670.44
2022-08-26T10:05:31.830Z,93673.66
2022-08-26T10:06:38.880Z,93664.63
2022-08-26T10:07:45.213Z,93663.13
2022-08-26T10:08:48.979Z,93668.41
2022-08-26T10:09:52.515Z,93666.75
2022-08-26T10:10:56.433Z,93664.84
2022-08-26T10:12:02.013Z,93664.88
2022-08-26T10:13:07.732Z,93666.75
2022-08-26T10:14:15.554Z,93670.66
2022-08-26T10:15:19.486Z,93666.66
2022-08-26T10:16:27.504Z,93661.69
2022-08-26T10:17:35.877Z,93664.91
2022-08-26T10:18:42.218Z,93654.72
2022-08-26T10:19:56.855Z,93664.00
2022-08-26T10:21:03.938Z,93667.97
2022-08-26T10:22:13.839Z,93663.22
2022-08-26T10:23:18.617Z,93662.41
2022-08-26T10:24:25.702Z,93661.31
2022-08-26T10:25:33.786Z,93666.19
2022-08-26T10:26:41.162Z,93662.84
2022-08-26T10:27:51.305Z,93661.16
2022-08-26T10:29:00.155Z,93651.88
2022-08-26T10:30:07.458Z,93645.94
2022-08-26T10:31:20.008Z,93647.06
2022-08-26T10:32:29.689Z,93648.38
2022-08-26T10:33:31.430Z,93648.34
2022-08-26T10:34:33.513Z,93651.88
2022-08-26T10:35:37.518Z,93644.31
2022-08-26T10:37:05.193Z,93648.34
2022-08-26T10:38:11.568Z,93647.84
2022-08-26T10:39:22.654Z,93640.72
2022-08-26T10:40:29.195Z,93643.84
2022-08-26T10:41:36.176Z,93638.88
2022-08-26T10:42:42.584Z,93646.88
2022-08-26T10:43:51.562Z,93640.38
2022-08-26T10:44:58.805Z,93641.00
2022-08-26T10:46:06.963Z,93638.88
2022-08-26T10:47:16.281Z,93641.00
2022-08-26T10:48:27.558Z,93641.31
2022-08-26T10:49:38.039Z,93641.63
2022-08-26T10:50:43.657Z,93635.75
2022-08-26T10:51:58.086Z,93642.47
2022-08-26T10:53:05.329Z,93639.56
2022-08-26T10:54:14.989Z,93642.28
2022-08-26T10:55:23.092Z,93642.00
2022-08-26T10:56:36.778Z,93638.19
2022-08-26T10:57:47.180Z,93643.63
2022-08-26T10:58:57.966Z,93641.22
2022-08-26T11:00:07.501Z,93637.72
2022-08-26T11:01:17.840Z,93638.00
2022-08-26T11:02:30.873Z,93636.38
2022-08-26T11:03:41.775Z,93636.38
2022-08-26T11:04:49.445Z,93630.19
2022-08-26T11:06:20.084Z,93638.25
2022-08-26T11:07:41.261Z,93634.22
2022-08-26T11:08:46.199Z,93635.78
2022-08-26T11:09:48.174Z,93632.41
2022-08-26T11:10:59.279Z,93637.16
2022-08-26T11:12:05.106Z,93630.66
2022-08-26T11:13:11.708Z,93637.31
2022-08-26T11:14:46.068Z,93637.88
2022-08-26T11:15:58.776Z,93637.81
2022-08-26T11:17:04.242Z,93632.16
2022-08-26T11:18:10.203Z,93632.38
2022-08-26T11:19:59.033Z,93625.91
2022-08-26T11:20:54.481Z,93633.63
2022-08-26T11:22:04.387Z,93637.28
2022-08-26T11:23:44.958Z,93629.75
2022-08-26T11:25:12.961Z,93626.25
2022-08-26T11:26:35.575Z,93619.69
2022-08-26T11:28:03.327Z,93619.09
2022-08-26T11:29:04.966Z,93614.41
2022-08-26T11:30:47.362Z,93607.84
2022-08-26T11:31:58.669Z,93607.13
2022-08-26T11:33:02.315Z,93611.06
2022-08-26T11:34:06.183Z,93608.03
2022-08-26T11:35:10.072Z,93609.06
2022-08-26T11:36:45.995Z,93609.28
2022-08-26T11:37:50.052Z,93610.09
2022-08-26T11:38:51.575Z,93600.59
2022-08-26T11:39:57.277Z,93598.72
2022-08-26T11:41:10.531Z,93597.72
2022-08-26T11:42:27.771Z,93602.06
2022-08-26T11:43:30.323Z,93603.97
2022-08-26T11:44:38.699Z,93598.91
2022-08-26T11:45:44.154Z,93604.69
2022-08-26T11:46:53.767Z,93596.72
2022-08-26T11:47:55.511Z,93600.44
2022-08-26T11:49:03.789Z,93600.72
2022-08-26T11:50:08.133Z,93603.16
2022-08-26T11:51:11.758Z,93600.31
2022-08-26T11:52:18.576Z,93606.22
2022-08-26T11:53:23.908Z,93606.22
2022-08-26T11:54:35.304Z,93603.34
2022-08-26T11:55:43.174Z,93609.00
2022-08-26T11:56:46.748Z,93610.38
2022-08-26T11:57:53.172Z,93604.63
2022-08-26T11:58:57.811Z,93614.78
2022-08-26T12:00:00.156Z,93615.91
2022-08-26T12:01:05.165Z,93611.78
2022-08-26T12:02:15.157Z,93610.00
2022-08-26T12:03:23.059Z,93614.16
2022-08-26T12:04:31.522Z,93613.16
2022-08-26T12:05:36.452Z,93609.69
2022-08-26T12:06:47.500Z,93613.25
2022-08-26T12:07:50.027Z,93604.31
2022-08-26T12:08:57.511Z,93606.78
2022-08-26T12:10:02.328Z,93611.03
2022-08-26T12:11:06.253Z,93603.84
2022-08-26T12:12:13.797Z,93605.78
2022-08-26T12:13:22.088Z,93604.84
2022-08-26T12:14:25.936Z,93609.59
2022-08-26T12:15:31.893Z,93606.28
2022-08-26T12:16:35.952Z,93597.03
2022-08-26T12:17:38.033Z,93607.41
2022-08-26T12:18:39.553Z,93611.56
2022-08-26T12:19:42.835Z,93604.22
2022-08-26T12:20:44.690Z,93603.97
2022-08-26T12:21:48.802Z,93605.47
2022-08-26T12:22:50.316Z,93608.44
2022-08-26T12:23:55.057Z,93600.97
2022-08-26T12:24:58.895Z,93609.72
2022-08-26T12:26:07.154Z,93606.38
2022-08-26T12:27:16.965Z,93603.00
2022-08-26T12:28:18.872Z,93611.78
2022-08-26T12:29:27.422Z,93605.75
2022-08-26T12:30:29.006Z,93605.75
2022-08-26T12:31:35.443Z,93611.94
2022-08-26T12:32:39.339Z,93610.00
2022-08-26T12:34:00.296Z,93603.44
2022-08-26T12:36:17.811Z,93602.84
2022-08-26T12:37:19.460Z,93604.75
2022-08-26T12:38:22.299Z,93603.13
2022-08-26T12:39:26.793Z,93605.25
2022-08-26T12:40:33.749Z,93603.59
2022-08-26T12:41:40.503Z,93597.38
2022-08-26T12:42:42.325Z,93593.34
2022-08-26T12:43:45.712Z,93587.47